createdAt,value
2022-09-15T00:00:09.485Z,19.57
2022-09-15T00:02:45.651Z,19.66
2022-09-15T00:05:14.630Z,19.67
2022-09-15T00:07:46.237Z,19.68
2022-09-15T00:10:27.953Z,19.65
2022-09-15T00:13:12.159Z,19.70
2022-09-15T00:15:41.946Z,19.73
2022-09-15T00:18:13.380Z,19.68
2022-09-15T00:20:45.255Z,19.71
2022-09-15T00:23:18.115Z,19.67
2022-09-15T00:25:58.451Z,19.71
2022-09-15T00:28:31.746Z,19.62
2022-09-15T00:31:12.848Z,19.61
2022-09-15T00:33:40.814Z,19.59
2022-09-15T00:36:12.401Z,19.57
2022-09-15T00:38:50.458Z,19.62
2022-09-15T00:41:24.590Z,19.61
2022-09-15T00:44:04.395Z,19.66
2022-09-15T00:46:40.027Z,19.65
2022-09-15T00:49:19.422Z,19.67
2022-09-15T00:51:55.224Z,19.73
2022-09-15T00:54:46.966Z,19.73
2022-09-15T00:57:35.911Z,19.76
2022-09-15T01:00:12.421Z,19.76
2022-09-15T01:02:46.159Z,19.66
2022-09-15T01:05:31.453Z,19.81
2022-09-15T01:08:14.681Z,19.83
2022-09-15T01:10:48.255Z,19.90
2022-09-15T01:13:17.534Z,19.87
2022-09-15T01:16:09.870Z,19.92
2022-09-15T01:19:13.532Z,19.81
2022-09-15T01:22:24.339Z,19.85
2022-09-15T01:25:09.224Z,19.66
2022-09-15T01:28:23.070Z,19.59
2022-09-15T01:30:59.952Z,19.54
2022-09-15T01:33:51.880Z,19.49
2022-09-15T01:36:25.152Z,19.60
2022-09-15T01:39:08.355Z,19.54
2022-09-15T01:41:45.284Z,19.59
2022-09-15T01:44:20.457Z,19.59
2022-09-15T01:46:53.455Z,19.56
2022-09-15T01:49:31.620Z,19.58
2022-09-15T01:51:59.233Z,19.64
2022-09-15T01:54:33.204Z,19.69
2022-09-15T01:57:09.171Z,19.63
2022-09-15T01:59:37.481Z,19.72
2022-09-15T02:02:10.247Z,19.66
2022-09-15T02:04:52.812Z,19.63
2022-09-15T02:07:48.136Z,19.59
2022-09-15T02:10:37.789Z,19.57
2022-09-15T02:13:21.606Z,19.67
2022-09-15T02:16:04.924Z,19.68
2022-09-15T02:19:20.736Z,19.72
2022-09-15T02:25:22.135Z,19.67
2022-09-15T02:27:52.203Z,19.67
2022-09-15T02:30:25.398Z,19.63
2022-09-15T02:33:04.190Z,19.68
2022-09-15T02:35:38.948Z,19.65
2022-09-15T02:38:13.648Z,19.60
2022-09-15T02:40:50.824Z,19.55
2022-09-15T02:43:27.819Z,19.47
2022-09-15T02:46:02.306Z,19.43
2022-09-15T02:48:38.656Z,19.45
2022-09-15T02:51:10.591Z,19.36
2022-09-15T02:53:44.104Z,19.38
2022-09-15T02:56:13.901Z,19.40
2022-09-15T02:58:45.866Z,19.38
2022-09-15T03:01:19.465Z,19.50
2022-09-15T03:03:46.801Z,19.46
2022-09-15T03:06:18.528Z,19.41
2022-09-15T03:09:05.186Z,19.26
2022-09-15T03:11:41.230Z,19.29
2022-09-15T03:14:26.506Z,19.35
2022-09-15T03:17:02.553Z,19.48
2022-09-15T03:19:32.691Z,19.40
2022-09-15T03:22:05.418Z,19.52
2022-09-15T03:24:42.364Z,19.50
2022-09-15T03:27:15.234Z,19.49
2022-09-15T03:29:51.324Z,19.40
2022-09-15T03:32:29.879Z,19.44
2022-09-15T03:35:02.253Z,19.43
2022-09-15T03:37:32.936Z,19.35
2022-09-15T03:40:05.849Z,19.21
2022-09-15T03:42:33.367Z,19.21
2022-09-15T03:45:03.915Z,19.16
2022-09-15T03:47:31.319Z,19.05
2022-09-15T03:49:58.912Z,19.10
2022-09-15T03:52:28.282Z,19.12
2022-09-15T03:54:58.556Z,19.16
2022-09-15T03:57:26.167Z,19.28
2022-09-15T03:59:58.475Z,19.17
2022-09-15T04:02:30.044Z,19.23
2022-09-15T04:05:02.311Z,19.20
2022-09-15T04:07:32.945Z,19.26
2022-09-15T04:10:02.916Z,19.15
2022-09-15T04:12:46.189Z,19.37
2022-09-15T04:15:16.105Z,19.28
2022-09-15T04:17:47.352Z,19.29
2022-09-15T04:20:21.687Z,19.28
2022-09-15T04:22:49.893Z,19.27
2022-09-15T04:25:21.905Z,19.42
2022-09-15T04:28:02.780Z,19.46
2022-09-15T04:30:30.039Z,19.35
2022-09-15T04:33:05.937Z,19.49
2022-09-15T04:35:42.508Z,19.30
2022-09-15T04:38:15.649Z,19.45
2022-09-15T04:40:48.931Z,19.60
2022-09-15T04:43:15.846Z,19.53
2022-09-15T04:45:42.361Z,19.49
2022-09-15T04:48:08.984Z,19.41
2022-09-15T04:50:35.557Z,19.48
2022-09-15T04:53:02.234Z,19.55
2022-09-15T04:55:29.052Z,19.39
2022-09-15T04:57:55.568Z,19.20
2022-09-15T05:00:22.149Z,19.29
2022-09-15T05:02:48.782Z,19.40
2022-09-15T05:05:15.280Z,19.18
2022-09-15T05:07:41.857Z,19.17
2022-09-15T05:10:08.992Z,19.20
2022-09-15T05:12:35.618Z,19.18
2022-09-15T05:15:06.045Z,18.99
2022-09-15T05:17:33.250Z,19.26
2022-09-15T05:20:00.494Z,19.32
2022-09-15T05:22:28.020Z,19.18
2022-09-15T05:24:54.775Z,19.37
2022-09-15T05:27:21.264Z,19.39
2022-09-15T05:29:47.838Z,19.38
2022-09-15T05:32:14.976Z,19.37
2022-09-15T05:34:41.536Z,19.29
2022-09-15T05:37:09.390Z,19.34
2022-09-15T05:39:35.921Z,19.18
2022-09-15T05:42:02.625Z,19.31
2022-09-15T05:44:29.491Z,18.97
2022-09-15T05:46:56.187Z,18.96
2022-09-15T05:49:23.136Z,19.14
2022-09-15T05:51:49.795Z,18.94
2022-09-15T05:54:16.395Z,18.92
2022-09-15T05:56:42.943Z,18.88
2022-09-15T05:59:09.539Z,18.91
2022-09-15T06:01:36.295Z,18.92
2022-09-15T06:04:03.080Z,18.78
2022-09-15T06:06:31.071Z,18.95
2022-09-15T06:08:59.483Z,18.87
2022-09-15T06:11:30.795Z,18.97
2022-09-15T06:14:01.590Z,19.06
2022-09-15T06:16:31.722Z,18.99
2022-09-15T06:18:59.215Z,18.73
2022-09-15T06:21:27.714Z,18.73
2022-09-15T06:24:06.954Z,18.97
2022-09-15T06:26:34.099Z,19.19
2022-09-15T06:29:02.702Z,19.40
2022-09-15T06:31:33.848Z,19.40
2022-09-15T06:34:01.742Z,18.67
2022-09-15T06:36:29.524Z,18.39
2022-09-15T06:38:56.871Z,18.48
2022-09-15T06:41:23.710Z,18.57
2022-09-15T06:43:50.251Z,18.38
2022-09-15T06:46:19.546Z,18.56
2022-09-15T06:48:48.562Z,18.49
2022-09-15T06:51:17.025Z,18.68
2022-09-15T06:53:44.134Z,18.33
2022-09-15T06:56:23.680Z,18.56
2022-09-15T06:58:50.557Z,18.73
2022-09-15T07:01:28.592Z,18.69
2022-09-15T07:03:58.204Z,18.51
2022-09-15T07:06:25.519Z,18.81
2022-09-15T07:08:53.849Z,18.88
2022-09-15T07:11:20.777Z,18.66
2022-09-15T07:13:49.153Z,18.74
2022-09-15T07:16:16.180Z,18.60
2022-09-15T07:18:43.774Z,18.54
2022-09-15T07:21:17.218Z,18.42
2022-09-15T07:23:44.255Z,18.85
2022-09-15T07:26:16.036Z,19.07
2022-09-15T07:28:44.271Z,19.17
2022-09-15T07:31:14.032Z,19.17
2022-09-15T07:33:41.042Z,19.16
2022-09-15T07:36:08.562Z,18.89
2022-09-15T07:38:38.419Z,18.94
2022-09-15T07:41:10.884Z,19.43
2022-09-15T07:43:38.165Z,19.52
2022-09-15T07:46:05.184Z,19.47
2022-09-15T07:48:32.159Z,19.88
2022-09-15T07:51:01.626Z,20.02
2022-09-15T07:53:29.352Z,19.92
2022-09-15T07:55:56.322Z,19.91
2022-09-15T07:58:23.315Z,19.89
2022-09-15T08:00:50.088Z,20.04
2022-09-15T08:03:16.794Z,19.74
2022-09-15T08:05:45.563Z,19.77
2022-09-15T08:08:12.586Z,19.89
2022-09-15T08:10:41.170Z,19.90
2022-09-15T08:13:08.147Z,19.71
2022-09-15T08:15:37.776Z,19.55
2022-09-15T08:18:05.406Z,19.62
2022-09-15T08:20:31.909Z,19.82
2022-09-15T08:22:58.590Z,19.56
2022-09-15T08:25:25.242Z,19.71
2022-09-15T08:27:54.009Z,19.66
2022-09-15T08:30:21.248Z,19.52
2022-09-15T08:32:48.713Z,19.62
2022-09-15T08:35:15.968Z,19.20
2022-09-15T08:37:42.716Z,19.10
2022-09-15T08:40:32.867Z,19.30
2022-09-15T08:43:05.899Z,19.14
2022-09-15T08:45:41.932Z,19.32
2022-09-15T08:48:09.970Z,19.60
2022-09-15T08:50:40.422Z,19.61
2022-09-15T08:53:27.475Z,19.73
2022-09-15T08:56:00.027Z,19.87
2022-09-15T08:58:29.835Z,20.03
2022-09-15T09:01:03.886Z,19.89
2022-09-15T09:03:39.576Z,20.00
2022-09-15T09:06:40.483Z,20.36
2022-09-15T09:09:22.139Z,20.11
2022-09-15T09:11:51.978Z,20.29
2022-09-15T09:14:36.378Z,20.18
2022-09-15T09:17:36.409Z,20.21
2022-09-15T09:20:34.281Z,19.92
2022-09-15T09:23:02.262Z,19.78
2022-09-15T09:25:28.888Z,19.63
2022-09-15T09:27:58.196Z,19.39
2022-09-15T09:30:27.631Z,19.70
2022-09-15T09:33:04.396Z,19.71
2022-09-15T09:35:41.366Z,19.76
2022-09-15T09:38:09.542Z,19.58
2022-09-15T09:40:41.153Z,19.67
2022-09-15T09:43:08.151Z,19.83
2022-09-15T09:45:34.803Z,19.54
2022-09-15T09:48:05.793Z,19.06
2022-09-15T09:50:39.081Z,18.88
2022-09-15T09:53:27.258Z,17.84
2022-09-15T09:55:55.527Z,17.55
2022-09-15T09:58:24.927Z,17.18
2022-09-15T10:00:52.830Z,17.14
2022-09-15T10:03:21.764Z,16.88
2022-09-15T10:06:07.628Z,16.78
2022-09-15T10:08:36.432Z,16.90
2022-09-15T10:11:05.823Z,16.70
2022-09-15T10:13:34.602Z,17.19
2022-09-15T10:16:02.505Z,17.07
2022-09-15T10:18:35.713Z,16.71
2022-09-15T10:21:04.374Z,16.80
2022-09-15T10:23:32.413Z,16.20
2022-09-15T10:26:33.741Z,16.23
2022-09-15T10:29:12.595Z,16.18
2022-09-15T10:31:39.896Z,16.26
2022-09-15T10:34:30.498Z,16.47
2022-09-15T10:37:14.049Z,16.36
2022-09-15T10:39:52.347Z,16.10
2022-09-15T10:42:37.887Z,16.15
2022-09-15T10:45:12.408Z,16.03
2022-09-15T10:47:43.300Z,15.80
2022-09-15T10:50:43.873Z,15.95
2022-09-15T10:53:17.420Z,16.14
2022-09-15T10:56:13.932Z,15.66
2022-09-15T10:59:06.978Z,15.77
2022-09-15T11:01:48.965Z,15.22
2022-09-15T11:04:25.216Z,15.39
2022-09-15T11:07:24.315Z,15.65
2022-09-15T11:09:55.874Z,15.69
2022-09-15T11:12:36.358Z,15.99
2022-09-15T11:15:09.829Z,16.12
2022-09-15T11:18:01.345Z,15.73
2022-09-15T11:21:10.986Z,16.03
2022-09-15T11:23:45.874Z,16.55
2022-09-15T11:26:30.058Z,16.67
2022-09-15T11:29:11.913Z,16.41
2022-09-15T11:31:41.137Z,16.26
2022-09-15T11:34:20.160Z,16.20
2022-09-15T11:36:52.136Z,16.38
2022-09-15T11:39:29.064Z,16.32
2022-09-15T11:42:01.014Z,16.48
2022-09-15T11:44:39.884Z,16.36
2022-09-15T11:47:26.305Z,15.80
2022-09-15T11:50:07.883Z,16.42
2022-09-15T11:52:51.920Z,16.86
2022-09-15T11:55:30.403Z,16.96
2022-09-15T11:58:15.512Z,17.29
2022-09-15T12:00:49.119Z,16.95
2022-09-15T12:03:31.162Z,17.00
2022-09-15T12:06:02.364Z,16.99
2022-09-15T12:08:46.960Z,17.15
2022-09-15T12:11:18.828Z,17.23
2022-09-15T12:13:45.655Z,17.16
2022-09-15T12:16:12.630Z,17.30
2022-09-15T12:19:06.968Z,17.38
2022-09-15T12:21:38.750Z,17.34
2022-09-15T12:24:33.884Z,17.45
2022-09-15T12:27:01.125Z,17.43
2022-09-15T12:29:27.732Z,17.49
2022-09-15T12:32:20.499Z,17.03
2022-09-15T12:35:20.203Z,17.20
2022-09-15T12:38:06.911Z,16.93
2022-09-15T12:40:36.226Z,16.88
2022-09-15T12:43:04.512Z,17.34
2022-09-15T12:45:33.760Z,17.46
2022-09-15T12:48:05.288Z,18.17
2022-09-15T12:50:35.404Z,18.40
2022-09-15T12:53:12.992Z,18.17
2022-09-15T12:56:01.721Z,18.40
2022-09-15T12:58:48.322Z,18.54
2022-09-15T13:01:18.625Z,18.37
2022-09-15T13:03:45.473Z,18.39
2022-09-15T13:06:24.956Z,18.45
2022-09-15T13:08:58.455Z,18.72
2022-09-15T13:11:37.547Z,18.83
2022-09-15T13:14:04.406Z,18.96
2022-09-15T13:16:40.019Z,18.87
2022-09-15T13:19:27.190Z,18.57
2022-09-15T13:22:02.259Z,18.24
2022-09-15T13:25:16.692Z,18.46
2022-09-15T13:27:45.620Z,18.53
2022-09-15T13:30:24.360Z,19.03
2022-09-15T13:33:00.962Z,19.02
2022-09-15T13:35:45.721Z,19.04
2022-09-15T13:38:34.134Z,19.34
2022-09-15T13:41:31.052Z,19.56
2022-09-15T13:44:26.217Z,19.58
2022-09-15T13:47:18.737Z,19.74
2022-09-15T13:50:06.931Z,19.73
2022-09-15T13:53:12.887Z,19.58
2022-09-15T13:55:42.237Z,19.60
2022-09-15T14:01:04.726Z,19.05
2022-09-15T14:03:44.729Z,19.11
2022-09-15T14:06:33.734Z,19.31
2022-09-15T14:09:09.694Z,19.30
2022-09-15T14:11:37.773Z,19.31
2022-09-15T14:14:08.587Z,19.35
2022-09-15T14:16:39.146Z,19.33
2022-09-15T14:19:38.888Z,19.47
2022-09-15T14:22:17.548Z,19.35
2022-09-15T14:24:44.664Z,19.63
2022-09-15T14:27:11.738Z,19.33
2022-09-15T14:29:42.012Z,19.55
2022-09-15T14:32:15.094Z,19.83
2022-09-15T14:34:42.382Z,19.99
2022-09-15T14:37:17.499Z,19.88
2022-09-15T14:39:56.466Z,18.83
2022-09-15T14:42:32.329Z,18.98
2022-09-15T14:48:00.174Z,18.60
2022-09-15T14:50:31.890Z,18.72
2022-09-15T14:53:10.883Z,19.08
2022-09-15T14:56:00.619Z,19.12
2022-09-15T14:58:35.809Z,19.35
2022-09-15T15:01:15.651Z,19.35
2022-09-15T15:03:48.269Z,18.87
2022-09-15T15:06:28.666Z,18.99
2022-09-15T15:09:00.677Z,19.30
2022-09-15T15:11:28.048Z,19.28
2022-09-15T15:13:56.506Z,18.95
2022-09-15T15:16:26.136Z,18.70
2022-09-15T15:18:53.261Z,18.95
2022-09-15T15:21:43.657Z,18.64
2022-09-15T15:24:13.035Z,18.81
2022-09-15T15:26:42.185Z,18.92
2022-09-15T15:29:44.506Z,19.08
2022-09-15T15:32:22.400Z,19.11
2022-09-15T15:34:54.648Z,19.16
2022-09-15T15:37:28.252Z,19.30
2022-09-15T15:40:00.013Z,19.04
2022-09-15T15:42:28.792Z,19.40
2022-09-15T15:44:59.580Z,19.01
2022-09-15T15:47:29.378Z,19.11
2022-09-15T15:50:13.613Z,18.97
2022-09-15T15:52:41.929Z,19.02
2022-09-15T15:55:13.276Z,18.98
2022-09-15T15:57:40.013Z,18.84
2022-09-15T16:00:36.045Z,18.81
2022-09-15T16:03:02.622Z,18.82
2022-09-15T16:05:29.507Z,18.60
2022-09-15T16:07:57.055Z,18.78
2022-09-15T16:10:24.905Z,18.49
2022-09-15T16:12:52.031Z,18.56
2022-09-15T16:15:20.593Z,18.82
2022-09-15T16:17:48.178Z,18.72
2022-09-15T16:20:16.159Z,18.96
2022-09-15T16:22:43.204Z,18.96
2022-09-15T16:25:18.995Z,18.92
2022-09-15T16:27:45.597Z,19.13
2022-09-15T16:30:12.441Z,18.99
2022-09-15T16:32:40.157Z,18.73
2022-09-15T16:35:31.659Z,18.83
2022-09-15T16:37:58.170Z,18.63
2022-09-15T16:40:24.751Z,18.58
2022-09-15T16:42:51.557Z,18.36
2022-09-15T16:45:27.169Z,18.40
2022-09-15T16:47:53.737Z,18.27
2022-09-15T16:50:20.283Z,18.18
2022-09-15T16:52:46.857Z,18.05
2022-09-15T16:55:19.865Z,18.17
2022-09-15T16:57:46.466Z,18.01
2022-09-15T17:00:13.646Z,18.16
2022-09-15T17:02:40.238Z,18.11
2022-09-15T17:05:15.557Z,18.13
2022-09-15T17:07:42.069Z,18.08
2022-09-15T17:10:08.828Z,18.18
2022-09-15T17:12:36.983Z,18.23
2022-09-15T17:15:15.131Z,18.12
2022-09-15T17:17:41.654Z,18.12
2022-09-15T17:20:09.372Z,18.04
2022-09-15T17:22:36.310Z,18.16
2022-09-15T17:25:13.710Z,18.08
2022-09-15T17:27:40.262Z,18.00
2022-09-15T17:30:07.832Z,17.88
2022-09-15T17:32:35.061Z,17.95
2022-09-15T17:35:01.846Z,17.79
2022-09-15T17:37:28.409Z,17.86
2022-09-15T17:39:58.834Z,17.93
2022-09-15T17:42:25.806Z,17.98
2022-09-15T17:44:53.301Z,17.91
2022-09-15T17:47:19.967Z,18.00
2022-09-15T17:49:46.535Z,18.08
2022-09-15T17:52:13.029Z,18.13
2022-09-15T17:54:39.622Z,17.98
2022-09-15T17:57:07.815Z,17.96
2022-09-15T17:59:34.862Z,18.04
2022-09-15T18:02:01.601Z,17.92
2022-09-15T18:04:29.494Z,18.00
2022-09-15T18:06:56.079Z,18.09
2022-09-15T18:09:22.604Z,18.04
2022-09-15T18:11:49.133Z,18.20
2022-09-15T18:14:15.808Z,18.28
2022-09-15T18:16:43.197Z,18.22
2022-09-15T18:19:10.285Z,18.17
2022-09-15T18:21:36.828Z,18.20
2022-09-15T18:24:03.707Z,18.20
2022-09-15T18:26:30.319Z,18.24
2022-09-15T18:28:56.968Z,18.23
2022-09-15T18:31:23.728Z,18.24
2022-09-15T18:33:50.343Z,18.24
2022-09-15T18:36:16.861Z,18.16
2022-09-15T18:38:43.717Z,18.10
2022-09-15T18:41:11.720Z,18.02
2022-09-15T18:43:38.347Z,17.98
2022-09-15T18:46:11.207Z,17.83
2022-09-15T18:48:37.860Z,17.72
2022-09-15T18:51:08.563Z,17.60
2022-09-15T18:53:36.508Z,17.69
2022-09-15T18:56:13.525Z,17.61
2022-09-15T18:58:40.354Z,17.49
2022-09-15T19:01:07.370Z,17.39
2022-09-15T19:03:34.309Z,17.40
2022-09-15T19:06:05.259Z,17.44
2022-09-15T19:08:33.257Z,17.35
2022-09-15T19:11:00.905Z,17.39
2022-09-15T19:13:28.848Z,17.41
2022-09-15T19:15:56.350Z,17.47
2022-09-15T19:18:23.431Z,17.53
2022-09-15T19:20:50.007Z,17.57
2022-09-15T19:23:16.690Z,17.64
2022-09-15T19:25:45.457Z,17.61
2022-09-15T19:28:12.155Z,17.55
2022-09-15T19:30:39.126Z,17.67
2022-09-15T19:33:05.856Z,17.39
2022-09-15T19:35:32.463Z,17.61
2022-09-15T19:37:59.009Z,17.50
2022-09-15T19:40:25.607Z,17.56
2022-09-15T19:42:52.290Z,17.58
2022-09-15T19:45:19.145Z,17.61
2022-09-15T19:47:45.651Z,17.58
2022-09-15T19:50:12.263Z,17.59
2022-09-15T19:52:39.032Z,17.56
2022-09-15T19:55:07.412Z,17.47
2022-09-15T19:57:33.992Z,17.49
2022-09-15T20:00:00.497Z,17.40
2022-09-15T20:02:27.202Z,17.43
2022-09-15T20:04:53.955Z,17.36
2022-09-15T20:07:20.572Z,17.25
2022-09-15T20:09:47.512Z,17.38
2022-09-15T20:12:14.128Z,17.39
2022-09-15T20:14:41.223Z,17.28
2022-09-15T20:17:07.828Z,17.06
2022-09-15T20:19:34.636Z,16.96
2022-09-15T20:22:01.378Z,16.98
2022-09-15T20:24:27.952Z,16.93
2022-09-15T20:26:54.617Z,16.81
2022-09-15T20:29:21.235Z,16.86
2022-09-15T20:31:48.194Z,16.65
2022-09-15T20:34:15.115Z,16.69
2022-09-15T20:36:42.034Z,16.77
2022-09-15T20:39:12.850Z,16.69
2022-09-15T20:41:40.506Z,16.62
2022-09-15T20:44:10.873Z,16.50
2022-09-15T20:46:37.462Z,16.39
2022-09-15T20:49:04.701Z,16.34
2022-09-15T20:51:33.944Z,16.36
2022-09-15T20:54:03.488Z,16.25
2022-09-15T20:56:31.090Z,16.27
2022-09-15T20:58:59.141Z,16.28
2022-09-15T21:01:27.638Z,16.29
2022-09-15T21:03:55.337Z,16.12
2022-09-15T21:06:24.215Z,16.14
2022-09-15T21:08:51.183Z,16.05
2022-09-15T21:11:19.424Z,16.09
2022-09-15T21:13:48.128Z,16.08
2022-09-15T21:16:20.595Z,15.97
2022-09-15T21:18:48.083Z,15.96
2022-09-15T21:21:22.905Z,15.98
2022-09-15T21:23:51.715Z,15.91
2022-09-15T21:26:20.416Z,15.96
2022-09-15T21:28:47.365Z,15.83
2022-09-15T21:31:19.080Z,15.91
2022-09-15T21:33:47.191Z,15.87
2022-09-15T21:36:22.225Z,15.77
2022-09-15T21:38:50.578Z,15.86
2022-09-15T21:41:21.457Z,15.83
2022-09-15T21:43:48.784Z,15.67
2022-09-15T21:46:18.284Z,15.81
2022-09-15T21:48:47.312Z,15.85
2022-09-15T21:51:15.655Z,15.68
2022-09-15T21:53:42.987Z,15.72
2022-09-15T21:56:12.629Z,15.60
2022-09-15T21:58:42.988Z,15.54
2022-09-15T22:01:14.117Z,15.36
2022-09-15T22:03:44.628Z,15.39
2022-09-15T22:06:12.419Z,15.33
2022-09-15T22:08:39.475Z,15.41
2022-09-15T22:11:06.884Z,15.34
2022-09-15T22:13:35.773Z,15.20
2022-09-15T22:16:05.349Z,15.35
2022-09-15T22:18:32.301Z,15.24
2022-09-15T22:21:14.840Z,15.23
2022-09-15T22:23:42.919Z,15.36
2022-09-15T22:26:21.003Z,15.05
2022-09-15T22:28:47.808Z,15.24
2022-09-15T22:31:16.410Z,15.22
2022-09-15T22:33:43.161Z,15.34
2022-09-15T22:36:14.027Z,15.38
2022-09-15T22:38:40.722Z,15.27
2022-09-15T22:41:09.412Z,15.47
2022-09-15T22:43:36.771Z,15.19
2022-09-15T22:46:03.809Z,15.29
2022-09-15T22:48:30.472Z,15.42
2022-09-15T22:50:57.171Z,15.40
2022-09-15T22:53:24.164Z,15.30
2022-09-15T22:55:51.560Z,15.36
2022-09-15T22:58:18.123Z,15.33
2022-09-15T23:00:45.005Z,15.32
2022-09-15T23:03:12.043Z,15.22
2022-09-15T23:05:38.667Z,15.37
2022-09-15T23:08:05.283Z,15.44
2022-09-15T23:10:32.726Z,15.53
2022-09-15T23:12:59.801Z,15.46
2022-09-15T23:15:26.567Z,15.66
2022-09-15T23:17:53.148Z,15.70
2022-09-15T23:20:19.752Z,15.65
2022-09-15T23:22:46.353Z,15.75
2022-09-15T23:25:13.495Z,15.75
2022-09-15T23:27:40.532Z,15.85
2022-09-15T23:30:07.599Z,15.82
2022-09-15T23:32:34.194Z,15.87
2022-09-15T23:35:00.836Z,15.88
2022-09-15T23:37:27.451Z,15.88
2022-09-15T23:39:54.370Z,15.95
2022-09-15T23:42:20.947Z,16.00
2022-09-15T23:44:47.556Z,16.05
2022-09-15T23:47:14.145Z,15.94
2022-09-15T23:49:41.611Z,15.98
2022-09-15T23:52:08.163Z,16.02
2022-09-15T23:54:34.741Z,16.11
2022-09-15T23:57:05.345Z,16.13
2022-09-15T23:59:31.913Z,16.21
